Time;durP1;ratioP1;P1;durP2;ratioP2;P2;SDS_P1;SDS_P2;PMS_P1;PMS_P2;Temp;Humidity;BMP_temperature;BMP_pressure;BME280_temperature;BME280_humidity;BME280_pressure;Samples;Min_cycle;Max_cycle;Signal;HPM_P1;HPM_P2
2021/08/08 00:01:32;;;;;;;1.70;1.60;;;;;;;18.26;100.00;99937.44;5075424;28;20441;-74
2021/08/08 00:03:58;;;;;;;2.30;1.50;;;;;;;18.26;100.00;99936.66;5075291;28;20462;-73
2021/08/08 00:06:24;;;;;;;5.90;2.00;;;;;;;18.26;100.00;99934.72;5074623;28;20441;-73
2021/08/08 00:08:51;;;;;;;1.50;1.10;;;;;;;18.24;100.00;99938.97;5075294;28;20437;-73
2021/08/08 00:11:17;;;;;;;1.97;1.47;;;;;;;18.20;100.00;99951.84;5075263;28;20445;-73
2021/08/08 00:13:44;;;;;;;1.33;1.10;;;;;;;18.17;100.00;99953.38;5075147;28;20457;-73
2021/08/08 00:16:12;;;;;;;2.27;1.50;;;;;;;18.14;100.00;99951.34;5075080;28;20456;-73
2021/08/08 00:18:38;;;;;;;2.20;1.50;;;;;;;18.15;100.00;99955.69;5074890;28;20966;-73
2021/08/08 00:21:05;;;;;;;2.67;1.37;;;;;;;18.11;100.00;99955.63;5075056;28;20441;-73
2021/08/08 00:23:31;;;;;;;1.57;1.37;;;;;;;18.13;100.00;99972.50;5074976;28;20527;-73
2021/08/08 00:25:57;;;;;;;1.47;1.27;;;;;;;18.09;100.00;99965.38;5074660;28;20997;-73
2021/08/08 00:28:24;;;;;;;1.90;1.23;;;;;;;18.08;100.00;99963.78;5074930;28;20436;-73
2021/08/08 00:30:50;;;;;;;1.70;1.30;;;;;;;18.03;100.00;99964.91;5074919;28;20464;-72
2021/08/08 00:33:18;;;;;;;1.10;1.00;;;;;;;18.01;100.00;99969.94;5083298;28;20492;-73
2021/08/08 00:35:45;;;;;;;1.23;1.00;;;;;;;17.99;100.00;99966.00;5095013;28;20436;-73
2021/08/08 00:38:11;;;;;;;1.67;1.47;;;;;;;17.97;100.00;99965.56;5094901;28;20480;-73
2021/08/08 00:40:39;;;;;;;1.27;1.10;;;;;;;17.97;100.00;99969.09;5094913;28;20455;-73
2021/08/08 00:43:08;;;;;;;1.30;1.20;;;;;;;17.92;100.00;99966.66;5094532;28;21095;-73
2021/08/08 00:45:35;;;;;;;1.60;1.23;;;;;;;17.88;100.00;99969.34;5094861;28;20440;-72
2021/08/08 00:48:01;;;;;;;2.40;1.67;;;;;;;17.88;100.00;99971.28;5094775;28;20443;-72
2021/08/08 00:50:30;;;;;;;2.70;1.70;;;;;;;17.86;100.00;99971.66;5094683;28;20929;-73
2021/08/08 00:52:56;;;;;;;2.50;1.70;;;;;;;17.86;100.00;99971.66;5094595;28;20468;-73
2021/08/08 00:55:22;;;;;;;2.57;1.40;;;;;;;17.86;100.00;99965.38;5094655;28;20437;-72
2021/08/08 00:57:49;;;;;;;4.73;1.43;;;;;;;17.87;100.00;99966.97;5094518;28;20480;-73
2021/08/08 01:00:16;;;;;;;1.10;1.00;;;;;;;17.87;100.00;99966.97;5094199;28;20945;-72
2021/08/08 01:02:49;;;;;;;1.63;1.00;;;;;;;17.88;100.00;99963.06;5094377;28;20471;-72
2021/08/08 01:05:20;;;;;;;1.90;1.23;;;;;;;17.86;100.00;99960.69;5094174;28;20432;-73
2021/08/08 01:07:54;;;;;;;3.40;2.07;;;;;;;17.89;100.00;99965.44;5094096;28;20795;-72
2021/08/08 01:10:21;;;;;;;1.63;1.10;;;;;;;17.89;100.00;99968.19;5094372;28;20425;-72
2021/08/08 01:12:50;;;;;;;1.43;1.33;;;;;;;17.87;100.00;99956.00;5093864;28;20874;-72
2021/08/08 01:15:16;;;;;;;3.70;1.73;;;;;;;17.87;100.00;99962.28;5094197;28;20470;-72
2021/08/08 01:17:45;;;;;;;4.33;1.33;;;;;;;17.80;100.00;99962.16;5093225;28;20483;-72
2021/08/08 01:20:14;;;;;;;1.03;0.87;;;;;;;17.80;100.00;99951.22;5094128;28;20445;-73
2021/08/08 01:22:44;;;;;;;1.20;0.97;;;;;;;17.77;100.00;99957.41;5094170;28;20468;-73
2021/08/08 01:25:13;;;;;;;2.83;1.90;;;;;;;17.69;100.00;99966.63;5094367;28;20428;-73
2021/08/08 01:27:40;;;;;;;1.40;1.27;;;;;;;17.67;100.00;99970.91;5094018;28;20453;-73
2021/08/08 01:30:08;;;;;;;1.13;0.93;;;;;;;17.65;100.00;99960.28;5093666;28;20957;-75
2021/08/08 01:32:34;;;;;;;1.30;1.10;;;;;;;17.63;100.00;99968.88;5093826;28;20472;-73
2021/08/08 01:35:01;;;;;;;1.07;0.97;;;;;;;17.58;100.00;99971.91;5093862;28;20453;-73
2021/08/08 01:37:30;;;;;;;1.30;0.87;;;;;;;17.60;100.00;99977.03;5093813;28;20487;-76
2021/08/08 01:40:02;;;;;;;1.90;1.30;;;;;;;17.55;100.00;99961.69;5093480;28;20440;-71
2021/08/08 01:42:31;;;;;;;2.80;1.53;;;;;;;17.57;100.00;99970.31;5093744;28;20467;-73
2021/08/08 01:44:57;;;;;;;2.27;1.27;;;;;;;17.60;100.00;99961.38;5093727;28;20449;-72
2021/08/08 01:47:27;;;;;;;2.03;1.70;;;;;;;17.58;100.00;99962.91;5093744;28;20451;-73
2021/08/08 01:49:55;;;;;;;1.60;1.10;;;;;;;17.57;100.00;99964.03;5093749;28;20445;-73
2021/08/08 01:52:22;;;;;;;4.07;1.40;;;;;;;17.50;100.00;99952.97;5093457;28;20487;-72
2021/08/08 01:54:49;;;;;;;1.00;0.87;;;;;;;17.51;100.00;99960.03;5093706;28;20436;-71
2021/08/08 01:57:16;;;;;;;1.53;1.10;;;;;;;17.52;100.00;99959.66;5093167;28;20533;-71
2021/08/08 01:59:44;;;;;;;1.20;1.00;;;;;;;17.48;100.00;99953.31;5093597;28;20444;-71
2021/08/08 02:02:12;;;;;;;2.20;1.57;;;;;;;17.51;100.00;99962.78;5093430;28;20514;-72
2021/08/08 02:04:40;;;;;;;1.70;1.03;;;;;;;17.51;100.00;99969.03;5093449;28;20443;-72
2021/08/08 02:07:08;;;;;;;1.30;1.10;;;;;;;17.52;100.00;99976.09;5093469;28;20444;-72
2021/08/08 02:09:34;;;;;;;1.33;0.90;;;;;;;17.50;100.00;99972.94;5093401;28;20444;-72
2021/08/08 02:12:01;;;;;;;2.33;1.30;;;;;;;17.47;100.00;99979.13;5093357;28;20447;-72
2021/08/08 02:14:27;;;;;;;1.23;1.00;;;;;;;17.44;100.00;99982.59;5093266;28;20475;-71
2021/08/08 02:16:55;;;;;;;2.10;1.67;;;;;;;17.45;100.00;99978.72;5093218;28;20449;-72
2021/08/08 02:19:21;;;;;;;1.30;1.07;;;;;;;17.50;100.00;99980.38;5093310;28;20463;-72
2021/08/08 02:21:48;;;;;;;1.10;1.00;;;;;;;17.48;100.00;99979.91;5093516;28;20436;-72
2021/08/08 02:24:14;;;;;;;1.13;1.00;;;;;;;17.47;100.00;99976.38;5093171;28;20866;-72
2021/08/08 02:26:41;;;;;;;1.77;1.67;;;;;;;17.45;100.00;99991.63;5093224;28;20436;-72
2021/08/08 02:29:07;;;;;;;1.40;1.00;;;;;;;17.40;100.00;99985.28;5093739;28;20443;-72
2021/08/08 02:31:37;;;;;;;1.30;1.20;;;;;;;17.39;100.00;99991.09;5097460;28;20444;-72
2021/08/08 02:34:06;;;;;;;2.33;1.80;;;;;;;17.35;100.00;99995.69;5096858;28;20491;-71
2021/08/08 02:36:32;;;;;;;1.87;0.90;;;;;;;17.35;100.00;99984.75;5097410;28;20440;-71
2021/08/08 02:38:59;;;;;;;1.40;1.30;;;;;;;17.36;100.00;99981.66;5097167;28;20483;-71
2021/08/08 02:41:25;;;;;;;1.00;0.93;;;;;;;17.37;100.00;99985.19;5097270;28;20456;-71
2021/08/08 02:43:54;;;;;;;1.57;1.17;;;;;;;17.36;100.00;99981.66;5097123;28;20464;-71
2021/08/08 02:46:20;;;;;;;1.73;1.33;;;;;;;17.32;100.00;99986.28;5097087;28;20444;-71
2021/08/08 02:48:47;;;;;;;2.20;1.60;;;;;;;17.30;100.00;99985.84;5097057;28;20436;-71
2021/08/08 02:51:14;;;;;;;3.10;1.57;;;;;;;17.28;100.00;99988.16;5097029;28;20452;-71
2021/08/08 02:53:41;;;;;;;1.53;1.10;;;;;;;17.28;100.00;99982.69;5096593;28;20982;-72
2021/08/08 02:56:07;;;;;;;2.10;1.17;;;;;;;17.29;100.00;99989.72;5096932;28;20447;-72
2021/08/08 02:58:34;;;;;;;3.37;1.70;;;;;;;17.31;100.00;99994.84;5096858;28;20496;-71
2021/08/08 03:01:00;;;;;;;1.77;1.43;;;;;;;17.33;100.00;99995.28;5096763;28;20440;-71
2021/08/08 03:03:27;;;;;;;2.40;1.50;;;;;;;17.33;100.00;99998.81;5096747;28;20460;-71
2021/08/08 03:05:53;;;;;;;1.60;1.00;;;;;;;17.34;100.00;100000.38;5096757;28;20466;-71
2021/08/08 03:08:21;;;;;;;1.93;1.50;;;;;;;17.33;100.00;100004.28;5096706;28;20432;-71
2021/08/08 03:10:47;;;;;;;1.63;1.17;;;;;;;17.33;100.00;100009.75;5096654;28;20452;-71
2021/08/08 03:13:14;;;;;;;1.77;1.27;;;;;;;17.33;100.00;100009.75;5096512;28;20456;-71
2021/08/08 03:15:40;;;;;;;4.20;1.33;;;;;;;17.34;100.00;100013.28;5096538;28;20452;-71
2021/08/08 03:18:07;;;;;;;2.13;1.77;;;;;;;17.36;100.00;100017.25;5096398;28;20480;-71
2021/08/08 03:20:33;;;;;;;0.93;0.83;;;;;;;17.36;100.00;100014.53;5096175;28;20949;-72
2021/08/08 03:23:00;;;;;;;1.60;1.23;;;;;;;17.35;100.00;100007.47;5096671;28;20448;-72
2021/08/08 03:25:28;;;;;;;1.97;1.20;;;;;;;17.35;100.00;100020.34;5096400;28;20463;-72
2021/08/08 03:27:54;;;;;;;1.30;1.00;;;;;;;17.36;100.00;100028.22;5096359;28;20445;-71
2021/08/08 03:30:20;;;;;;;1.30;1.20;;;;;;;17.36;100.00;100030.94;5095996;28;20967;-72
2021/08/08 03:32:47;;;;;;;1.47;1.33;;;;;;;17.32;100.00;100032.81;5096121;28;20476;-72
2021/08/08 03:35:13;;;;;;;1.20;1.10;;;;;;;17.34;100.00;100033.25;5096264;28;20436;-72
2021/08/08 03:37:40;;;;;;;7.30;1.27;;;;;;;17.37;100.00;100039.97;5095751;28;20480;-72
2021/08/08 03:40:08;;;;;;;1.77;1.50;;;;;;;17.37;100.00;100042.69;5095981;28;20482;-72
2021/08/08 03:42:35;;;;;;;0.97;0.77;;;;;;;17.36;100.00;100047.38;5095053;28;20460;-72
2021/08/08 03:45:02;;;;;;;1.90;1.00;;;;;;;17.35;100.00;100054.00;5095713;28;20439;-72
2021/08/08 03:47:28;;;;;;;4.67;1.90;;;;;;;17.32;100.00;100057.47;5095960;28;20453;-71
2021/08/08 03:49:55;;;;;;;1.70;1.40;;;;;;;17.29;100.00;100046.44;5095589;28;20937;-71
2021/08/08 03:52:21;;;;;;;1.57;1.20;;;;;;;17.29;100.00;100055.44;5095866;28;20445;-69
2021/08/08 03:54:47;;;;;;;1.90;1.47;;;;;;;17.23;100.00;100054.16;5095529;28;20444;-69
2021/08/08 03:57:14;;;;;;;1.30;1.10;;;;;;;17.20;100.00;100073.22;5095792;28;20444;-69
2021/08/08 03:59:42;;;;;;;1.17;1.00;;;;;;;17.15;100.00;100071.56;5095641;28;20480;-69
2021/08/08 04:02:08;;;;;;;1.20;1.07;;;;;;;17.10;100.00;100077.31;5095264;28;20949;-69
2021/08/08 04:04:34;;;;;;;1.27;1.10;;;;;;;17.04;100.00;100076.00;5095662;28;20454;-69
2021/08/08 04:07:01;;;;;;;1.87;1.43;;;;;;;17.04;100.00;100081.47;5095578;28;20444;-69
2021/08/08 04:09:27;;;;;;;2.80;1.27;;;;;;;17.04;100.00;100089.66;5095589;28;20448;-69
2021/08/08 04:11:54;;;;;;;1.03;0.93;;;;;;;17.06;100.00;100090.13;5095509;28;20440;-69
2021/08/08 04:14:20;;;;;;;1.13;1.00;;;;;;;17.04;100.00;100086.94;5095395;28;20531;-70
2021/08/08 04:16:48;;;;;;;1.20;1.00;;;;;;;17.04;100.00;100095.16;5095422;28;20505;-70
2021/08/08 04:19:15;;;;;;;1.03;0.80;;;;;;;17.01;100.00;100093.16;5094959;28;20997;-70
2021/08/08 04:21:41;;;;;;;1.70;1.00;;;;;;;17.04;100.00;100095.16;5095332;28;20443;-70
2021/08/08 04:24:07;;;;;;;1.33;1.17;;;;;;;17.02;100.00;100106.47;5095198;28;20463;-70
2021/08/08 04:26:34;;;;;;;1.60;1.20;;;;;;;16.99;100.00;100103.63;5095240;28;20448;-69
2021/08/08 04:29:00;;;;;;;1.07;1.00;;;;;;;17.00;100.00;100105.22;5095184;28;20436;-70
2021/08/08 04:31:27;;;;;;;0.90;0.80;;;;;;;17.02;100.00;100108.41;5095154;28;20436;-70
2021/08/08 04:33:54;;;;;;;3.23;1.50;;;;;;;17.04;100.00;100111.56;5094753;28;20471;-70
2021/08/08 04:36:21;;;;;;;2.60;1.23;;;;;;;16.99;100.00;100109.91;5095074;28;20447;-69
2021/08/08 04:38:47;;;;;;;1.00;1.00;;;;;;;17.00;100.00;100119.72;5094559;28;20480;-69
2021/08/08 04:41:14;;;;;;;1.00;0.90;;;;;;;17.01;100.00;100117.78;5095144;28;20436;-70
2021/08/08 04:43:40;;;;;;;1.07;1.00;;;;;;;17.01;100.00;100128.72;5094796;28;20456;-69
2021/08/08 04:46:07;;;;;;;1.20;0.87;;;;;;;17.01;100.00;100128.72;5094817;28;20459;-70
2021/08/08 04:48:33;;;;;;;1.33;0.77;;;;;;;17.01;100.00;100134.19;5094699;28;20441;-70
2021/08/08 04:51:01;;;;;;;1.20;0.90;;;;;;;17.01;100.00;100131.44;5094656;28;20436;-70
2021/08/08 04:53:27;;;;;;;1.87;1.10;;;;;;;17.01;100.00;100137.72;5094380;28;20456;-69
2021/08/08 04:55:55;;;;;;;0.90;0.70;;;;;;;16.99;100.00;100126.31;5094816;28;20436;-69
2021/08/08 04:58:21;;;;;;;0.77;0.70;;;;;;;17.02;100.00;100125.63;5094207;28;21001;-74
2021/08/08 05:00:48;;;;;;;1.47;1.30;;;;;;;17.07;100.00;100128.06;5094559;28;20480;-71
2021/08/08 05:03:14;;;;;;;0.73;0.73;;;;;;;17.12;100.00;100129.75;5094467;28;20456;-73
2021/08/08 05:05:41;;;;;;;1.33;1.23;;;;;;;17.10;100.00;100132.84;5094725;28;20444;-74
2021/08/08 05:08:08;;;;;;;1.50;1.30;;;;;;;17.14;100.00;100135.66;5094431;28;20444;-74
2021/08/08 05:10:35;;;;;;;1.90;0.87;;;;;;;17.15;100.00;100129.03;5094066;28;20949;-74
2021/08/08 05:13:01;;;;;;;0.97;0.77;;;;;;;17.16;100.00;100141.56;5094189;28;20472;-74
2021/08/08 05:15:28;;;;;;;0.77;0.77;;;;;;;17.19;100.00;100140.06;5093996;28;20436;-73
2021/08/08 05:17:54;;;;;;;0.60;0.60;;;;;;;17.20;100.00;100147.13;5093419;28;20459;-73
2021/08/08 05:20:21;;;;;;;1.80;1.37;;;;;;;17.28;100.00;100148.88;5094255;28;20864;-73
2021/08/08 05:22:47;;;;;;;2.60;0.97;;;;;;;17.29;100.00;100148.50;5093968;28;20460;-73
2021/08/08 05:25:15;;;;;;;5.30;0.93;;;;;;;17.32;100.00;100161.50;5093816;28;21012;-74
2021/08/08 05:27:42;;;;;;;0.90;0.80;;;;;;;17.39;100.00;100155.38;5094047;28;20448;-73
2021/08/08 05:30:10;;;;;;;0.90;0.77;;;;;;;17.42;100.00;100160.13;5094075;28;20455;-73
2021/08/08 05:32:37;;;;;;;0.83;0.80;;;;;;;17.44;100.00;100165.25;5093713;28;20480;-73
2021/08/08 05:35:03;;;;;;;0.83;0.60;;;;;;;17.44;100.00;100171.53;5095408;28;20503;-73
2021/08/08 05:37:30;;;;;;;1.20;0.90;;;;;;;17.46;100.00;100171.19;5093876;28;20436;-73
2021/08/08 05:39:58;;;;;;;1.07;0.60;;;;;;;17.51;100.00;100177.16;5093736;28;20480;-73
2021/08/08 05:42:25;;;;;;;0.50;0.50;;;;;;;17.57;100.00;100177.66;5093413;28;20812;-72
2021/08/08 05:44:52;;;;;;;0.77;0.77;;;;;;;17.59;100.00;100184.38;5093719;28;20440;-71
2021/08/08 05:47:18;;;;;;;0.60;0.60;;;;;;;17.64;100.00;100188.78;5093542;28;20448;-72
2021/08/08 05:49:45;;;;;;;0.90;0.60;;;;;;;17.63;100.00;100190.75;5093675;28;20477;-72
2021/08/08 05:52:12;;;;;;;0.63;0.63;;;;;;;17.65;100.00;100207.59;5093820;28;20444;-72
2021/08/08 05:54:39;;;;;;;0.50;0.40;;;;;;;17.67;100.00;100206.47;5093834;28;20545;-72
2021/08/08 05:57:05;;;;;;;0.60;0.53;;;;;;;17.69;100.00;100201.41;5093482;28;20443;-72
2021/08/08 05:59:33;;;;;;;0.63;0.60;;;;;;;17.68;99.27;100214.31;5093099;28;20992;-72
2021/08/08 06:01:59;;;;;;;0.90;0.60;;;;;;;17.72;97.82;100222.63;5093335;28;20440;-72
2021/08/08 06:04:26;;;;;;;1.07;0.67;;;;;;;17.80;96.74;100227.94;5092756;28;20465;-72
2021/08/08 06:06:52;;;;;;;0.60;0.50;;;;;;;17.85;97.21;100219.41;5093203;28;20441;-72
2021/08/08 06:09:19;;;;;;;0.60;0.60;;;;;;;17.90;96.69;100224.63;5093104;28;20938;-73
2021/08/08 06:11:45;;;;;;;1.53;0.70;;;;;;;17.96;96.34;100227.84;5093354;28;20436;-72
2021/08/08 06:14:12;;;;;;;0.90;0.60;;;;;;;18.00;97.73;100222.47;5093297;28;20468;-72
2021/08/08 06:16:39;;;;;;;1.43;0.50;;;;;;;18.04;94.82;100229.59;5093309;28;20445;-71
2021/08/08 06:19:06;;;;;;;0.83;0.67;;;;;;;18.11;94.85;100229.75;5092987;28;21004;-73
2021/08/08 06:21:32;;;;;;;1.10;0.70;;;;;;;18.17;96.40;100226.72;5092992;28;20941;-74
2021/08/08 06:23:59;;;;;;;0.60;0.40;;;;;;;18.19;96.37;100227.94;5093291;28;20463;-73
2021/08/08 06:26:26;;;;;;;0.60;0.43;;;;;;;18.22;95.65;100226.44;5093342;28;20444;-72
2021/08/08 06:28:54;;;;;;;0.70;0.50;;;;;;;18.24;95.36;100229.59;5093228;28;20443;-73
2021/08/08 06:31:21;;;;;;;0.50;0.50;;;;;;;18.33;92.37;100230.97;5093199;28;20444;-74
2021/08/08 06:33:49;;;;;;;0.70;0.60;;;;;;;18.40;94.22;100238.53;5092693;28;20886;-73
2021/08/08 06:36:15;;;;;;;0.63;0.53;;;;;;;18.43;94.33;100237.81;5093186;28;20440;-73
2021/08/08 06:38:41;;;;;;;0.93;0.50;;;;;;;18.48;93.96;100242.22;5093097;28;20537;-74
2021/08/08 06:41:08;;;;;;;1.40;0.83;;;;;;;18.51;93.56;100242.28;5092896;28;20428;-74
2021/08/08 06:43:34;;;;;;;0.60;0.50;;;;;;;18.58;92.73;100233.38;5093080;28;20467;-74
2021/08/08 06:46:01;;;;;;;1.17;0.53;;;;;;;18.64;92.82;100231.94;5093097;28;20853;-74
2021/08/08 06:48:27;;;;;;;0.67;0.40;;;;;;;18.76;92.03;100245.50;5093057;28;20440;-73
2021/08/08 06:50:55;;;;;;;1.73;0.60;;;;;;;18.81;89.95;100247.16;5093010;28;20447;-73
2021/08/08 06:53:22;;;;;;;5.07;0.60;;;;;;;18.87;92.77;100246.50;5092750;28;20488;-74
2021/08/08 06:55:48;;;;;;;1.17;0.70;;;;;;;18.94;89.58;100248.56;5092980;28;20440;-74
2021/08/08 06:58:15;;;;;;;0.60;0.50;;;;;;;19.00;90.81;100247.13;5092928;28;20560;-74
2021/08/08 07:00:41;;;;;;;0.50;0.50;;;;;;;19.06;88.23;100250.34;5092879;28;20480;-73
2021/08/08 07:03:07;;;;;;;1.10;0.57;;;;;;;19.12;86.67;100235.94;5092886;28;20464;-74
2021/08/08 07:05:34;;;;;;;0.70;0.60;;;;;;;19.14;87.65;100233.63;5092806;28;20440;-74
2021/08/08 07:08:02;;;;;;;2.30;0.40;;;;;;;19.15;86.15;100228.91;5092905;28;20829;-74
2021/08/08 07:10:29;;;;;;;0.70;0.43;;;;;;;19.23;86.72;100244.34;5092923;28;20493;-73
2021/08/08 07:12:55;;;;;;;0.67;0.67;;;;;;;19.31;83.46;100237.81;5092775;28;20465;-74
2021/08/08 07:15:21;;;;;;;1.80;0.73;;;;;;;19.39;83.54;100256.00;5093703;28;20865;-73
2021/08/08 07:17:48;;;;;;;0.60;0.50;;;;;;;19.38;84.33;100254.38;5096579;28;20452;-74
2021/08/08 07:20:14;;;;;;;0.60;0.47;;;;;;;19.47;83.60;100256.09;5096551;28;20499;-74
2021/08/08 07:22:41;;;;;;;0.80;0.40;;;;;;;19.51;84.30;100267.94;5096662;28;20460;-74
2021/08/08 07:25:10;;;;;;;1.43;0.70;;;;;;;19.62;84.17;100266.19;5096144;28;20937;-74
2021/08/08 07:27:36;;;;;;;0.60;0.50;;;;;;;19.67;85.42;100262.31;5096444;28;20863;-74
2021/08/08 07:30:03;;;;;;;0.80;0.57;;;;;;;19.75;81.81;100264.00;5096360;28;20436;-74
2021/08/08 07:32:29;;;;;;;0.97;0.70;;;;;;;19.77;82.53;100261.69;5096075;28;20476;-74
2021/08/08 07:34:56;;;;;;;2.80;0.60;;;;;;;19.84;82.26;100262.56;5096301;28;20428;-74
2021/08/08 07:37:22;;;;;;;0.60;0.60;;;;;;;19.96;82.23;100264.28;5096152;28;20444;-74
2021/08/08 07:39:49;;;;;;;0.60;0.40;;;;;;;20.03;80.70;100272.63;5096103;28;20534;-75
2021/08/08 07:42:17;;;;;;;0.87;0.50;;;;;;;20.03;80.36;100291.88;5096043;28;20790;-75
2021/08/08 07:44:43;;;;;;;0.50;0.50;;;;;;;20.10;81.40;100292.00;5096016;28;20448;-75
2021/08/08 07:47:09;;;;;;;0.50;0.40;;;;;;;20.20;77.88;100287.00;5095991;28;20440;-75
2021/08/08 07:49:36;;;;;;;0.60;0.40;;;;;;;20.23;78.59;100289.81;5095660;28;20824;-75
2021/08/08 07:52:02;;;;;;;0.80;0.60;;;;;;;20.20;77.26;100296.03;5095995;28;20447;-74
2021/08/08 07:54:29;;;;;;;0.50;0.50;;;;;;;20.26;77.98;100291.78;5095746;28;20467;-74
2021/08/08 07:56:55;;;;;;;3.60;0.70;;;;;;;20.32;75.41;100303.25;5095889;28;20443;-79
2021/08/08 07:59:23;;;;;;;0.67;0.47;;;;;;;20.40;75.50;100299.41;5095661;28;20488;-73
2021/08/08 08:01:49;;;;;;;0.50;0.40;;;;;;;20.46;76.09;100308.16;5095584;28;20841;-74
2021/08/08 08:04:18;;;;;;;0.60;0.50;;;;;;;20.50;76.94;100309.03;5097192;28;20460;-77
2021/08/08 08:06:44;;;;;;;0.60;0.50;;;;;;;20.57;75.90;100314.59;5096415;28;20506;-78
2021/08/08 08:09:11;;;;;;;0.70;0.47;;;;;;;20.63;75.86;100326.88;5096296;28;20437;-78
2021/08/08 08:11:40;;;;;;;1.07;0.50;;;;;;;20.70;75.12;100320.66;5096742;28;20944;-77
2021/08/08 08:14:06;;;;;;;0.80;0.70;;;;;;;20.73;74.76;100326.19;5096306;28;20456;-76
2021/08/08 08:16:34;;;;;;;0.87;0.60;;;;;;;20.74;74.72;100324.22;5096957;28;20444;-76
2021/08/08 08:19:00;;;;;;;0.90;0.63;;;;;;;20.83;74.69;100320.00;5095295;28;20445;-77
2021/08/08 08:21:27;;;;;;;0.80;0.50;;;;;;;20.90;73.62;100325.59;5095450;28;20437;-74
2021/08/08 08:23:54;;;;;;;0.50;0.40;;;;;;;21.03;75.26;100325.31;5095076;28;20472;-77
2021/08/08 08:26:20;;;;;;;0.63;0.43;;;;;;;21.14;75.00;100329.75;5095642;28;20428;-77
2021/08/08 08:28:47;;;;;;;0.60;0.57;;;;;;;21.25;72.26;100327.13;5094829;28;20455;-74
2021/08/08 08:31:13;;;;;;;0.60;0.47;;;;;;;21.20;70.33;100337.69;5095509;28;20437;-75
2021/08/08 08:33:41;;;;;;;0.80;0.60;;;;;;;21.16;69.81;100334.88;5094853;28;20498;-76
2021/08/08 08:36:07;;;;;;;1.80;0.90;;;;;;;21.13;69.27;100341.16;5095147;28;20444;-74
2021/08/08 08:38:34;;;;;;;3.33;0.60;;;;;;;21.11;69.73;100338.78;5095100;28;20437;-77
2021/08/08 08:41:04;;;;;;;0.70;0.53;;;;;;;21.09;70.68;100343.09;5094491;28;21064;-77
2021/08/08 08:43:31;;;;;;;1.73;0.50;;;;;;;20.99;72.13;100336.31;5095020;28;20468;-77
2021/08/08 08:45:59;;;;;;;0.63;0.60;;;;;;;21.10;70.17;100337.19;5095196;28;20440;-77
2021/08/08 08:48:27;;;;;;;0.87;0.80;;;;;;;21.16;70.29;100329.38;5094838;28;20456;-74
2021/08/08 08:50:57;;;;;;;0.50;0.50;;;;;;;21.22;69.91;100330.63;5094508;28;20461;-76
2021/08/08 08:53:24;;;;;;;0.53;0.43;;;;;;;21.33;70.34;100328.78;5094733;28;20465;-74
2021/08/08 08:55:51;;;;;;;2.07;0.60;;;;;;;21.41;70.10;100330.44;5094863;28;20474;-77
2021/08/08 08:58:18;;;;;;;1.23;0.70;;;;;;;21.42;69.38;100332.00;5094986;28;20826;-76
2021/08/08 09:00:45;;;;;;;1.03;0.40;;;;;;;21.47;69.46;100338.34;5094840;28;20488;-77
2021/08/08 09:03:11;;;;;;;3.37;0.63;;;;;;;21.45;69.27;100337.94;5094751;28;20459;-77
2021/08/08 09:05:38;;;;;;;0.50;0.30;;;;;;;21.43;68.75;100346.59;5094741;28;20436;-77
2021/08/08 09:08:06;;;;;;;0.50;0.50;;;;;;;21.39;67.01;100343.81;5094538;28;20440;-76
2021/08/08 09:10:33;;;;;;;0.50;0.40;;;;;;;21.43;69.10;100343.84;5094536;28;20440;-77
2021/08/08 09:13:02;;;;;;;0.60;0.57;;;;;;;21.48;70.66;100351.75;5095067;28;20514;-75
2021/08/08 09:15:33;;;;;;;1.23;0.80;;;;;;;21.50;69.52;100354.91;5097816;28;20505;-78
2021/08/08 09:18:13;;;;;;;0.50;0.50;;;;;;;21.45;67.11;100347.00;5097441;28;20449;-80
2021/08/08 09:20:40;;;;;;;1.07;0.70;;;;;;;21.50;67.40;100352.16;5096435;28;20477;-79
2021/08/08 09:23:08;;;;;;;1.00;0.60;;;;;;;21.44;70.00;100350.94;5096786;28;20457;-79
2021/08/08 09:25:34;;;;;;;0.90;0.60;;;;;;;21.40;68.83;100356.41;5096276;28;20965;-79
2021/08/08 09:28:08;;;;;;;0.60;0.50;;;;;;;21.49;68.47;100353.34;5095709;28;20824;-79
2021/08/08 09:30:37;;;;;;;0.70;0.50;;;;;;;21.64;67.91;100359.75;5096853;28;20443;-79
2021/08/08 09:33:05;;;;;;;0.60;0.50;;;;;;;21.86;66.29;100366.22;5097115;28;20485;-79
2021/08/08 09:35:37;;;;;;;0.80;0.80;;;;;;;22.05;65.51;100359.69;5096693;28;20463;-80
2021/08/08 09:38:07;;;;;;;1.27;0.60;;;;;;;22.15;64.77;100370.00;5096516;28;20463;-78
2021/08/08 09:40:37;;;;;;;0.60;0.60;;;;;;;22.42;64.66;100376.06;5095188;28;20508;-81
2021/08/08 09:43:05;;;;;;;1.07;0.50;;;;;;;22.55;61.74;100373.75;5097336;28;20457;-80
2021/08/08 09:45:39;;;;;;;0.60;0.57;;;;;;;22.49;62.37;100383.56;5094022;28;20934;-76
2021/08/08 09:48:07;;;;;;;0.50;0.43;;;;;;;22.37;62.69;100388.25;5093632;28;20940;-76
2021/08/08 09:50:34;;;;;;;0.90;0.67;;;;;;;22.38;61.43;100384.31;5093866;28;20502;-76
2021/08/08 09:53:03;;;;;;;1.07;0.53;;;;;;;22.27;61.85;100391.75;5093949;28;20483;-76
2021/08/08 09:55:33;;;;;;;0.80;0.70;;;;;;;22.31;63.26;100397.28;5093612;28;20471;-76
2021/08/08 09:58:02;;;;;;;0.50;0.50;;;;;;;22.38;60.39;100398.13;5093897;28;20482;-76
2021/08/08 10:00:33;;;;;;;0.97;0.90;;;;;;;22.38;60.44;100408.38;5093550;28;20488;-76
2021/08/08 10:03:00;;;;;;;0.63;0.50;;;;;;;22.39;59.64;100416.25;5093533;28;20472;-76
2021/08/08 10:05:28;;;;;;;0.83;0.60;;;;;;;22.57;60.48;100410.03;5093606;28;20453;-76
2021/08/08 10:07:55;;;;;;;1.27;0.90;;;;;;;22.70;60.10;100403.00;5092929;28;20491;-76
2021/08/08 10:10:23;;;;;;;0.70;0.50;;;;;;;22.57;57.48;100413.59;5088686;28;20453;-76
2021/08/08 10:13:02;;;;;;;1.07;1.00;;;;;;;22.40;59.03;100409.59;5090636;28;20979;-76
2021/08/08 10:15:31;;;;;;;0.80;0.67;;;;;;;22.37;60.46;100424.16;5093548;28;20424;-76
2021/08/08 10:18:03;;;;;;;0.80;0.67;;;;;;;22.52;59.12;100413.19;5093092;28;20831;-76
2021/08/08 10:20:31;;;;;;;3.43;0.80;;;;;;;22.81;58.12;100419.66;5093402;28;20464;-76
2021/08/08 10:22:58;;;;;;;0.60;0.60;;;;;;;23.06;57.62;100425.28;5093258;28;20457;-76
2021/08/08 10:25:25;;;;;;;2.40;0.70;;;;;;;23.16;55.09;100424.53;5093322;28;20436;-75
2021/08/08 10:27:51;;;;;;;0.83;0.70;;;;;;;23.16;55.95;100439.13;5093384;28;20437;-76
2021/08/08 10:30:18;;;;;;;0.67;0.60;;;;;;;23.08;57.83;100432.00;5093275;28;20433;-76
2021/08/08 10:32:46;;;;;;;1.30;1.10;;;;;;;22.99;57.78;100430.78;5092828;28;20487;-77
2021/08/08 10:35:15;;;;;;;0.67;0.67;;;;;;;22.93;57.90;100419.31;5093257;28;20455;-76
2021/08/08 10:37:42;;;;;;;0.60;0.60;;;;;;;22.83;59.57;100428.31;5093270;28;20451;-76
2021/08/08 10:40:10;;;;;;;0.60;0.60;;;;;;;22.88;58.60;100437.00;5093112;28;20484;-76
2021/08/08 10:42:43;;;;;;;4.13;0.77;;;;;;;22.95;57.59;100424.47;5093133;28;20449;-76
2021/08/08 10:45:21;;;;;;;0.87;0.60;;;;;;;23.20;56.04;100432.81;5093221;28;20443;-76
2021/08/08 10:47:56;;;;;;;0.60;0.50;;;;;;;23.54;54.84;100427.75;5093146;28;20436;-76
2021/08/08 10:50:22;;;;;;;3.13;0.70;;;;;;;23.72;56.91;100416.72;5094160;28;20424;-77
2021/08/08 10:52:52;;;;;;;0.70;0.70;;;;;;;23.83;53.20;100432.16;5097074;28;20468;-77
2021/08/08 10:55:23;;;;;;;0.80;0.67;;;;;;;23.90;53.77;100423.84;5096730;28;20965;-76
2021/08/08 10:57:50;;;;;;;0.70;0.70;;;;;;;23.96;55.78;100445.59;5097120;28;20863;-76
2021/08/08 11:00:17;;;;;;;1.00;0.50;;;;;;;23.94;52.71;100439.66;5096927;28;20488;-75
2021/08/08 11:02:45;;;;;;;0.70;0.57;;;;;;;24.05;53.04;100446.00;5096713;28;20481;-76
2021/08/08 11:05:15;;;;;;;0.90;0.73;;;;;;;23.90;53.33;100440.44;5096917;28;20448;-76
2021/08/08 11:07:42;;;;;;;1.07;0.70;;;;;;;23.80;53.41;100452.31;5096830;28;20433;-76
2021/08/08 11:10:10;;;;;;;1.43;0.60;;;;;;;23.82;55.25;100443.63;5096542;28;20811;-76
2021/08/08 11:12:38;;;;;;;0.87;0.60;;;;;;;24.09;55.07;100444.81;5096665;28;20464;-76
2021/08/08 11:15:06;;;;;;;0.70;0.70;;;;;;;24.42;53.79;100448.34;5096663;28;20456;-77
2021/08/08 11:17:33;;;;;;;0.73;0.73;;;;;;;24.66;54.53;100455.03;5096645;28;20448;-76
2021/08/08 11:20:00;;;;;;;1.57;0.87;;;;;;;24.83;55.31;100459.69;5096651;28;20444;-76
2021/08/08 11:22:29;;;;;;;0.73;0.60;;;;;;;24.52;51.98;100455.81;5096481;28;20456;-76
2021/08/08 11:24:57;;;;;;;0.70;0.60;;;;;;;24.20;53.53;100460.59;5096137;28;20450;-76